createdAt,value
2023-01-17T00:00:00.826Z,17.90
2023-01-17T00:02:32.068Z,17.90
2023-01-17T00:05:19.244Z,17.90
2023-01-17T00:08:06.273Z,18.00
2023-01-17T00:10:35.574Z,18.00
2023-01-17T00:13:05.249Z,18.00
2023-01-17T00:15:34.429Z,18.00
2023-01-17T00:18:03.397Z,18.00
2023-01-17T00:20:51.688Z,18.10
2023-01-17T00:23:45.574Z,18.10
2023-01-17T00:26:19.034Z,18.20
2023-01-17T00:28:48.522Z,18.20
2023-01-17T00:31:18.588Z,18.30
2023-01-17T00:33:47.425Z,18.40
2023-01-17T00:36:16.237Z,18.50
2023-01-17T00:38:45.042Z,18.50
2023-01-17T00:41:15.864Z,18.60
2023-01-17T00:44:02.943Z,18.70
2023-01-17T00:46:50.142Z,18.80
2023-01-17T00:49:37.605Z,18.90
2023-01-17T00:52:24.795Z,19.00
2023-01-17T00:55:11.992Z,19.10
2023-01-17T00:57:59.023Z,19.10
2023-01-17T01:00:46.255Z,19.20
2023-01-17T01:03:34.040Z,19.30
2023-01-17T01:06:25.127Z,19.40
2023-01-17T01:09:12.755Z,19.50
2023-01-17T01:12:00.115Z,19.60
2023-01-17T01:14:47.535Z,19.70
2023-01-17T01:17:34.584Z,19.80
2023-01-17T01:20:21.823Z,19.90
2023-01-17T01:23:09.038Z,20.00
2023-01-17T01:25:56.114Z,20.00
2023-01-17T01:28:43.404Z,20.20
2023-01-17T01:31:30.611Z,20.30
2023-01-17T01:33:59.590Z,20.50
2023-01-17T01:36:28.609Z,20.60
2023-01-17T01:38:58.002Z,20.70
2023-01-17T01:41:27.057Z,20.80
2023-01-17T01:43:57.138Z,20.90
2023-01-17T01:46:46.146Z,21.00
2023-01-17T01:49:25.907Z,21.10
2023-01-17T01:52:01.067Z,21.10
2023-01-17T01:54:50.513Z,21.20
2023-01-17T01:57:24.084Z,21.30
2023-01-17T02:00:18.709Z,21.30
2023-01-17T02:02:50.615Z,21.40
2023-01-17T02:05:22.306Z,21.50
2023-01-17T02:08:18.440Z,21.50
2023-01-17T02:10:47.573Z,21.60
2023-01-17T02:13:19.275Z,21.80
2023-01-17T02:16:01.824Z,21.90
2023-01-17T02:18:43.243Z,22.00
2023-01-17T02:21:25.903Z,22.10
2023-01-17T02:24:31.500Z,22.20
2023-01-17T02:27:16.029Z,22.30
2023-01-17T02:29:50.507Z,22.40
2023-01-17T02:32:40.045Z,22.40
2023-01-17T02:35:22.421Z,22.60
2023-01-17T02:38:04.963Z,22.70
2023-01-17T02:40:42.915Z,22.90
2023-01-17T02:43:15.934Z,23.10
2023-01-17T02:45:46.760Z,23.20
2023-01-17T02:48:18.645Z,23.30
2023-01-17T02:50:50.373Z,23.30
2023-01-17T02:54:09.945Z,23.30
2023-01-17T02:56:44.398Z,23.30
2023-01-17T02:59:54.878Z,23.30
2023-01-17T03:02:38.791Z,23.30
2023-01-17T03:05:20.220Z,23.20
2023-01-17T03:07:50.541Z,23.20
2023-01-17T03:10:20.751Z,23.20
2023-01-17T03:12:50.039Z,23.20
2023-01-17T03:15:19.556Z,23.20
2023-01-17T03:17:54.843Z,23.30
2023-01-17T03:20:24.538Z,23.40
2023-01-17T03:22:53.605Z,23.60
2023-01-17T03:25:22.602Z,23.70
2023-01-17T03:27:51.581Z,23.90
2023-01-17T03:30:22.763Z,24.20
2023-01-17T03:32:52.119Z,24.30
2023-01-17T03:35:21.430Z,24.50
2023-01-17T03:37:50.454Z,24.60
2023-01-17T03:40:19.626Z,24.70
2023-01-17T03:42:48.674Z,24.80
2023-01-17T03:45:17.824Z,25.00
2023-01-17T03:47:46.979Z,25.10
2023-01-17T03:50:16.209Z,25.10
2023-01-17T03:52:45.171Z,25.20
2023-01-17T03:55:14.334Z,25.30
2023-01-17T03:57:43.368Z,25.30
2023-01-17T04:00:13.024Z,25.30
2023-01-17T04:02:41.947Z,25.30
2023-01-17T04:05:11.391Z,25.40
2023-01-17T04:07:40.845Z,25.50
2023-01-17T04:10:10.981Z,25.50
2023-01-17T04:12:39.979Z,25.50
2023-01-17T04:15:09.505Z,25.50
2023-01-17T04:17:38.536Z,25.50
2023-01-17T04:20:08.259Z,25.60
2023-01-17T04:22:37.253Z,25.70
2023-01-17T04:25:06.541Z,25.70
2023-01-17T04:27:35.637Z,25.90
2023-01-17T04:30:08.908Z,25.90
2023-01-17T04:32:37.986Z,25.80
2023-01-17T04:35:08.192Z,25.80
2023-01-17T04:37:37.793Z,25.70
2023-01-17T04:40:07.618Z,25.80
2023-01-17T04:42:36.700Z,25.90
2023-01-17T04:45:06.475Z,25.90
2023-01-17T04:47:35.861Z,25.90
2023-01-17T04:50:04.915Z,25.80
2023-01-17T04:52:34.056Z,25.80
2023-01-17T04:55:04.048Z,25.90
2023-01-17T04:57:33.068Z,25.90
2023-01-17T05:00:02.087Z,26.10
2023-01-17T05:02:31.103Z,26.20
2023-01-17T05:05:00.116Z,26.30
2023-01-17T05:07:29.159Z,26.20
2023-01-17T05:09:58.262Z,26.10
2023-01-17T05:12:27.250Z,26.10
2023-01-17T05:14:56.328Z,26.00
2023-01-17T05:17:25.307Z,26.00
2023-01-17T05:19:54.541Z,26.10
2023-01-17T05:22:23.507Z,26.20
2023-01-17T05:24:52.841Z,26.20
2023-01-17T05:27:21.926Z,26.30
2023-01-17T05:29:50.921Z,26.40
2023-01-17T05:32:20.035Z,26.50
2023-01-17T05:34:49.127Z,26.50
2023-01-17T05:37:18.438Z,26.60
2023-01-17T05:39:47.501Z,26.60
2023-01-17T05:42:16.704Z,26.70
2023-01-17T05:44:45.772Z,26.80
2023-01-17T05:47:14.783Z,26.80
2023-01-17T05:49:45.882Z,26.90
2023-01-17T05:52:15.059Z,27.00
2023-01-17T05:54:44.090Z,27.10
2023-01-17T05:57:14.313Z,27.20
2023-01-17T05:59:43.322Z,27.20
2023-01-17T06:02:12.977Z,27.20
2023-01-17T06:04:42.232Z,27.20
2023-01-17T06:07:11.268Z,27.30
2023-01-17T06:09:40.541Z,27.40
2023-01-17T06:12:09.652Z,27.50
2023-01-17T06:14:38.807Z,27.60
2023-01-17T06:17:07.810Z,27.70
2023-01-17T06:19:39.884Z,27.80
2023-01-17T06:22:09.301Z,27.80
2023-01-17T06:24:38.344Z,27.80
2023-01-17T06:27:09.767Z,27.60
2023-01-17T06:29:39.490Z,27.50
2023-01-17T06:32:08.559Z,27.40
2023-01-17T06:34:39.473Z,27.40
2023-01-17T06:37:09.062Z,27.50
2023-01-17T06:39:38.151Z,27.60
2023-01-17T06:42:07.573Z,27.70
2023-01-17T06:44:36.609Z,27.80
2023-01-17T06:47:05.747Z,27.80
2023-01-17T06:49:35.109Z,27.90
2023-01-17T06:52:04.158Z,28.00
2023-01-17T06:54:33.321Z,28.20
2023-01-17T06:57:02.455Z,28.30
2023-01-17T06:59:31.797Z,28.20
2023-01-17T07:02:00.900Z,28.10
2023-01-17T07:04:30.073Z,28.10
2023-01-17T07:06:59.066Z,28.10
2023-01-17T07:09:28.088Z,28.10
2023-01-17T07:12:00.826Z,28.10
2023-01-17T07:14:33.681Z,28.10
2023-01-17T07:17:02.672Z,28.20
2023-01-17T07:19:31.880Z,28.30
2023-01-17T07:22:03.670Z,28.50
2023-01-17T07:24:33.943Z,28.70
2023-01-17T07:27:03.025Z,28.80
2023-01-17T07:29:31.986Z,29.10
2023-01-17T07:32:00.956Z,29.20
2023-01-17T07:34:29.972Z,29.40
2023-01-17T07:36:59.489Z,29.50
2023-01-17T07:39:28.770Z,29.70
2023-01-17T07:41:57.822Z,29.70
2023-01-17T07:44:26.945Z,29.70
2023-01-17T07:46:56.634Z,29.70
2023-01-17T07:49:25.624Z,29.70
2023-01-17T07:51:56.352Z,29.80
2023-01-17T07:54:25.926Z,29.80
2023-01-17T07:56:54.973Z,29.90
2023-01-17T07:59:24.090Z,30.00
2023-01-17T08:01:53.310Z,30.10
2023-01-17T08:04:22.563Z,30.20
2023-01-17T08:06:52.937Z,30.20
2023-01-17T08:09:22.020Z,30.20
2023-01-17T08:11:51.113Z,30.20
2023-01-17T08:14:20.104Z,30.20
2023-01-17T08:16:49.102Z,30.20
2023-01-17T08:19:18.499Z,30.30
2023-01-17T08:21:47.604Z,30.30
2023-01-17T08:24:16.765Z,30.30
2023-01-17T08:26:45.752Z,30.30
2023-01-17T08:29:15.122Z,30.40
2023-01-17T08:31:46.773Z,30.40
2023-01-17T08:34:15.800Z,30.40
2023-01-17T08:36:45.947Z,30.30
2023-01-17T08:39:15.624Z,30.20
2023-01-17T08:41:44.736Z,30.10
2023-01-17T08:44:14.989Z,30.10
2023-01-17T08:46:45.262Z,30.10
2023-01-17T08:49:14.325Z,30.10
2023-01-17T08:51:43.415Z,30.20
2023-01-17T08:54:14.031Z,30.20
2023-01-17T08:56:48.111Z,30.20
2023-01-17T08:59:17.197Z,30.10
2023-01-17T09:01:47.129Z,30.10
2023-01-17T09:04:17.029Z,30.10
2023-01-17T09:06:48.629Z,30.10
2023-01-17T09:09:19.046Z,30.10
2023-01-17T09:11:48.281Z,30.00
2023-01-17T09:14:18.056Z,30.00
2023-01-17T09:16:47.571Z,30.00
2023-01-17T09:19:16.532Z,30.00
2023-01-17T09:21:45.778Z,29.90
2023-01-17T09:24:14.846Z,29.90
2023-01-17T09:26:43.878Z,29.80
2023-01-17T09:29:14.755Z,29.70
2023-01-17T09:31:43.849Z,29.60
2023-01-17T09:34:12.822Z,29.50
2023-01-17T09:36:42.819Z,29.40
2023-01-17T09:39:13.025Z,29.40
2023-01-17T09:42:03.293Z,29.30
2023-01-17T09:44:53.469Z,29.20
2023-01-17T09:47:42.810Z,29.10
2023-01-17T09:50:30.129Z,29.00
2023-01-17T09:53:24.019Z,28.90
2023-01-17T09:56:04.992Z,28.80
2023-01-17T09:58:52.290Z,28.70
2023-01-17T10:01:33.709Z,28.70
2023-01-17T10:04:32.856Z,28.60
2023-01-17T10:07:35.786Z,28.60
2023-01-17T10:10:15.606Z,28.40
2023-01-17T10:13:05.557Z,28.30
2023-01-17T10:15:40.124Z,28.30
2023-01-17T10:18:30.413Z,28.10
2023-01-17T10:21:02.508Z,28.10
2023-01-17T10:23:43.989Z,27.90
2023-01-17T10:26:40.045Z,27.90
2023-01-17T10:29:20.006Z,27.80
2023-01-17T10:32:01.777Z,27.70
2023-01-17T10:34:53.556Z,27.60
2023-01-17T10:37:44.724Z,27.50
2023-01-17T10:40:20.946Z,27.50
2023-01-17T10:43:25.117Z,27.30
2023-01-17T10:45:57.129Z,27.30
2023-01-17T10:48:47.839Z,27.20
2023-01-17T10:51:52.640Z,27.10
2023-01-17T10:54:21.254Z,27.00
2023-01-17T10:56:50.313Z,26.90
2023-01-17T10:59:36.045Z,26.80
2023-01-17T11:02:07.965Z,26.70
2023-01-17T11:04:38.265Z,26.60
2023-01-17T11:07:13.634Z,26.60
2023-01-17T11:09:54.026Z,26.50
2023-01-17T11:12:44.269Z,26.40
2023-01-17T11:15:13.306Z,26.40
2023-01-17T11:18:01.685Z,26.30
2023-01-17T11:20:41.708Z,26.20
2023-01-17T11:23:42.417Z,26.10
2023-01-17T11:26:22.484Z,26.10
2023-01-17T11:28:53.310Z,26.10
2023-01-17T11:31:22.258Z,26.00
2023-01-17T11:34:06.413Z,25.90
2023-01-17T11:36:35.579Z,25.90
2023-01-17T11:39:30.005Z,25.80
2023-01-17T11:41:59.819Z,25.70
2023-01-17T11:44:32.577Z,25.70
2023-01-17T11:47:13.915Z,25.60
2023-01-17T11:49:48.235Z,25.50
2023-01-17T11:52:40.149Z,25.50
2023-01-17T11:55:09.335Z,25.40
2023-01-17T11:57:38.322Z,25.40
2023-01-17T12:00:49.396Z,25.30
2023-01-17T12:03:24.301Z,25.20
2023-01-17T12:06:12.909Z,25.10
2023-01-17T12:08:54.075Z,25.00
2023-01-17T12:12:00.977Z,25.00
2023-01-17T12:14:53.611Z,24.90
2023-01-17T12:17:37.402Z,24.80
2023-01-17T12:20:13.955Z,24.80
2023-01-17T12:23:01.508Z,24.70
2023-01-17T12:25:46.284Z,24.70
2023-01-17T12:28:18.095Z,24.60
2023-01-17T12:30:53.250Z,24.60
2023-01-17T12:33:37.595Z,24.50
2023-01-17T12:36:18.585Z,24.50
2023-01-17T12:38:50.043Z,24.30
2023-01-17T12:41:18.958Z,24.30
2023-01-17T12:43:48.163Z,24.30
2023-01-17T12:46:22.132Z,24.20
2023-01-17T12:48:55.565Z,24.20
2023-01-17T12:51:32.465Z,24.10
2023-01-17T12:54:01.386Z,24.10
2023-01-17T12:56:35.902Z,24.00
2023-01-17T12:59:16.977Z,23.90
2023-01-17T13:01:58.648Z,23.90
2023-01-17T13:04:38.432Z,23.80
2023-01-17T13:07:49.070Z,23.80
2023-01-17T13:10:40.791Z,23.70
2023-01-17T13:13:21.171Z,23.70
2023-01-17T13:15:55.279Z,23.70
2023-01-17T13:18:30.828Z,23.60
2023-01-17T13:21:18.530Z,23.60
2023-01-17T13:24:07.083Z,23.60
2023-01-17T13:26:58.024Z,23.50
2023-01-17T13:29:36.071Z,23.50
2023-01-17T13:32:08.073Z,23.50
2023-01-17T13:34:55.165Z,23.40
2023-01-17T13:37:48.784Z,23.40
2023-01-17T13:40:29.471Z,23.40
2023-01-17T13:43:04.346Z,23.40
2023-01-17T13:45:38.168Z,23.30
2023-01-17T13:48:19.812Z,23.30
2023-01-17T13:50:52.315Z,23.30
2023-01-17T13:53:36.439Z,23.20
2023-01-17T13:56:20.947Z,23.30
2023-01-17T13:58:55.967Z,23.30
2023-01-17T14:01:25.075Z,23.20
2023-01-17T14:03:54.187Z,23.20
2023-01-17T14:06:46.455Z,23.20
2023-01-17T14:09:29.199Z,23.20
2023-01-17T14:12:05.836Z,23.20
2023-01-17T14:14:46.411Z,23.10
2023-01-17T14:17:24.756Z,23.10
2023-01-17T14:20:03.754Z,23.10
2023-01-17T14:22:39.546Z,23.10
2023-01-17T14:25:22.111Z,23.10
2023-01-17T14:28:15.418Z,23.00
2023-01-17T14:30:44.703Z,23.10
2023-01-17T14:33:27.429Z,23.10
2023-01-17T14:36:04.568Z,23.10
2023-01-17T14:38:35.609Z,23.10
2023-01-17T14:41:13.013Z,23.10
2023-01-17T14:43:44.621Z,23.20
2023-01-17T14:46:30.475Z,23.20
2023-01-17T14:49:05.187Z,23.20
2023-01-17T14:51:38.764Z,23.20
2023-01-17T14:54:22.757Z,23.30
2023-01-17T14:56:51.699Z,23.30
2023-01-17T14:59:24.309Z,23.30
2023-01-17T15:02:07.965Z,23.30
2023-01-17T15:04:40.274Z,23.30
2023-01-17T15:07:14.694Z,23.30
2023-01-17T15:09:45.936Z,23.30
2023-01-17T15:12:15.621Z,23.20
2023-01-17T15:14:48.614Z,23.20
2023-01-17T15:17:25.453Z,23.20
2023-01-17T15:20:05.091Z,23.20
2023-01-17T15:22:35.208Z,23.10
2023-01-17T15:25:04.875Z,23.10
2023-01-17T15:27:34.555Z,23.10
2023-01-17T15:30:05.100Z,23.00
2023-01-17T15:32:34.174Z,23.00
2023-01-17T15:35:04.124Z,22.90
2023-01-17T15:37:36.223Z,22.90
2023-01-17T15:40:05.191Z,22.90
2023-01-17T15:42:36.454Z,22.80
2023-01-17T15:45:10.442Z,22.80
2023-01-17T15:47:43.536Z,22.70
2023-01-17T15:50:28.791Z,22.70
2023-01-17T15:53:04.271Z,22.60
2023-01-17T15:55:49.249Z,22.60
2023-01-17T15:58:28.429Z,22.50
2023-01-17T16:00:58.439Z,22.50
2023-01-17T16:03:32.156Z,22.40
2023-01-17T16:06:04.069Z,22.40
2023-01-17T16:08:40.660Z,22.40
2023-01-17T16:11:12.746Z,22.30
2023-01-17T16:13:44.312Z,22.30
2023-01-17T16:16:27.045Z,22.20
2023-01-17T16:19:02.275Z,22.20
2023-01-17T16:21:32.864Z,22.10
2023-01-17T16:24:03.912Z,22.10
2023-01-17T16:26:33.015Z,22.00
2023-01-17T16:29:02.133Z,22.00
2023-01-17T16:31:31.109Z,22.00
2023-01-17T16:34:00.451Z,21.90
2023-01-17T16:36:29.860Z,21.80
2023-01-17T16:38:58.942Z,21.80
2023-01-17T16:41:27.937Z,21.70
2023-01-17T16:44:04.503Z,21.70
2023-01-17T16:46:33.830Z,21.70
2023-01-17T16:49:03.151Z,21.60
2023-01-17T16:51:32.860Z,21.60
2023-01-17T16:54:02.829Z,21.60
2023-01-17T16:56:31.857Z,21.50
2023-01-17T16:59:00.875Z,21.50
2023-01-17T17:01:30.120Z,21.40
2023-01-17T17:03:59.154Z,21.40
2023-01-17T17:06:28.169Z,21.30
2023-01-17T17:08:57.134Z,21.30
2023-01-17T17:11:26.369Z,21.30
2023-01-17T17:13:55.563Z,21.20
2023-01-17T17:16:34.041Z,21.20
2023-01-17T17:19:05.559Z,21.10
2023-01-17T17:21:36.448Z,21.10
2023-01-17T17:24:06.328Z,21.00
2023-01-17T17:26:37.926Z,21.00
2023-01-17T17:29:08.552Z,20.90
2023-01-17T17:31:37.866Z,20.90
2023-01-17T17:34:10.242Z,20.80
2023-01-17T17:36:39.985Z,20.80
2023-01-17T17:39:12.928Z,20.70
2023-01-17T17:41:44.895Z,20.70
2023-01-17T17:44:14.040Z,20.70
2023-01-17T17:46:44.020Z,20.60
2023-01-17T17:49:13.228Z,20.60
2023-01-17T17:51:42.413Z,20.50
2023-01-17T17:54:14.141Z,20.50
2023-01-17T17:56:47.592Z,20.50
2023-01-17T17:59:21.337Z,20.40
2023-01-17T18:01:51.019Z,20.40
2023-01-17T18:04:20.559Z,20.30
2023-01-17T18:06:49.516Z,20.30
2023-01-17T18:09:18.778Z,20.30
2023-01-17T18:11:48.310Z,20.20
2023-01-17T18:14:18.820Z,20.20
2023-01-17T18:16:48.800Z,20.20
2023-01-17T18:19:24.633Z,20.10
2023-01-17T18:21:54.386Z,20.10
2023-01-17T18:24:25.560Z,20.00
2023-01-17T18:26:59.029Z,20.00
2023-01-17T18:29:28.845Z,20.00
2023-01-17T18:31:57.984Z,19.90
2023-01-17T18:34:30.334Z,19.90
2023-01-17T18:36:59.771Z,19.90
2023-01-17T18:39:30.887Z,19.80
2023-01-17T18:42:00.145Z,19.80
2023-01-17T18:44:29.326Z,19.80
2023-01-17T18:47:05.567Z,19.70
2023-01-17T18:49:35.582Z,19.70
2023-01-17T18:52:04.666Z,19.70
2023-01-17T18:54:33.677Z,19.60
2023-01-17T18:57:02.648Z,19.60
2023-01-17T18:59:31.758Z,19.60
2023-01-17T19:02:00.672Z,19.50
2023-01-17T19:04:29.778Z,19.50
2023-01-17T19:06:58.785Z,19.40
2023-01-17T19:09:27.883Z,19.40
2023-01-17T19:11:58.037Z,19.40
2023-01-17T19:14:27.072Z,19.40
2023-01-17T19:16:58.341Z,19.30
2023-01-17T19:19:27.322Z,19.30
2023-01-17T19:21:56.276Z,19.30
2023-01-17T19:24:25.377Z,19.20
2023-01-17T19:26:55.137Z,19.20
2023-01-17T19:29:24.187Z,19.20
2023-01-17T19:31:53.293Z,19.20
2023-01-17T19:34:22.456Z,19.10
2023-01-17T19:36:51.484Z,19.10
2023-01-17T19:39:21.349Z,19.10
2023-01-17T19:41:50.318Z,19.10
2023-01-17T19:44:19.362Z,19.00
2023-01-17T19:46:48.563Z,19.00
2023-01-17T19:49:21.713Z,19.00
2023-01-17T19:51:51.233Z,18.90
2023-01-17T19:54:20.228Z,18.90
2023-01-17T19:56:49.327Z,18.90
2023-01-17T19:59:21.111Z,18.90
2023-01-17T20:01:50.674Z,18.80
2023-01-17T20:04:19.873Z,18.80
2023-01-17T20:06:48.878Z,18.70
2023-01-17T20:09:17.819Z,18.70
2023-01-17T20:11:47.796Z,18.70
2023-01-17T20:14:17.671Z,18.70
2023-01-17T20:16:48.582Z,18.70
2023-01-17T20:19:18.244Z,18.60
2023-01-17T20:21:47.704Z,18.60
2023-01-17T20:24:17.783Z,18.60
2023-01-17T20:26:47.116Z,18.60
2023-01-17T20:29:18.314Z,18.60
2023-01-17T20:31:47.652Z,18.60
2023-01-17T20:34:19.844Z,18.50
2023-01-17T20:36:49.196Z,18.50
2023-01-17T20:39:19.370Z,18.50
2023-01-17T20:41:50.116Z,18.50
2023-01-17T20:44:20.672Z,18.50
2023-01-17T20:46:49.631Z,18.50
2023-01-17T20:49:21.036Z,18.40
2023-01-17T20:51:50.115Z,18.40
2023-01-17T20:54:20.438Z,18.40
2023-01-17T20:56:49.803Z,18.40
2023-01-17T20:59:23.589Z,18.40
2023-01-17T21:01:53.105Z,18.30
2023-01-17T21:04:27.008Z,18.30
2023-01-17T21:06:56.453Z,18.30
2023-01-17T21:09:25.580Z,18.30
2023-01-17T21:11:55.451Z,18.20
2023-01-17T21:14:24.498Z,18.30
2023-01-17T21:16:53.573Z,18.20
2023-01-17T21:19:23.850Z,18.20
2023-01-17T21:21:52.946Z,18.20
2023-01-17T21:24:22.021Z,18.20
2023-01-17T21:26:52.540Z,18.20
2023-01-17T21:29:21.688Z,18.20
2023-01-17T21:31:50.753Z,18.10
2023-01-17T21:34:19.749Z,18.10
2023-01-17T21:36:48.775Z,18.10
2023-01-17T21:39:20.877Z,18.10
2023-01-17T21:41:51.870Z,18.10
2023-01-17T21:44:24.027Z,18.10
2023-01-17T21:46:56.003Z,18.00
2023-01-17T21:49:25.596Z,18.00
2023-01-17T21:51:54.620Z,18.00
2023-01-17T21:55:00.982Z,18.00
2023-01-17T21:57:48.234Z,17.90
2023-01-17T22:00:17.739Z,18.00
2023-01-17T22:02:48.188Z,17.90
2023-01-17T22:05:17.936Z,17.90
2023-01-17T22:08:13.219Z,17.90
2023-01-17T22:10:45.996Z,17.90
2023-01-17T22:13:19.926Z,17.80
2023-01-17T22:16:00.289Z,17.80
2023-01-17T22:18:30.152Z,17.80
2023-01-17T22:20:59.771Z,17.80
2023-01-17T22:23:28.748Z,17.80
2023-01-17T22:26:06.594Z,17.80
2023-01-17T22:28:36.069Z,17.80
2023-01-17T22:31:10.209Z,17.70
2023-01-17T22:33:40.802Z,17.70
2023-01-17T22:36:11.401Z,17.70
2023-01-17T22:38:44.339Z,17.70
2023-01-17T22:41:35.353Z,17.70
2023-01-17T22:44:04.549Z,17.60
2023-01-17T22:46:36.899Z,17.60
2023-01-17T22:49:08.804Z,17.60
2023-01-17T22:51:37.828Z,17.60
2023-01-17T22:54:06.888Z,17.60
2023-01-17T22:56:36.125Z,17.60
2023-01-17T22:59:06.809Z,17.60
2023-01-17T23:01:35.773Z,17.50
2023-01-17T23:04:06.111Z,17.50
2023-01-17T23:06:40.636Z,17.50
2023-01-17T23:09:14.877Z,17.50
2023-01-17T23:11:48.256Z,17.50
2023-01-17T23:14:27.661Z,17.50
2023-01-17T23:17:17.567Z,17.50
2023-01-17T23:19:55.648Z,17.50
2023-01-17T23:22:29.352Z,17.50
2023-01-17T23:25:00.961Z,17.50
2023-01-17T23:27:52.344Z,17.50
2023-01-17T23:30:30.361Z,17.40
2023-01-17T23:33:01.195Z,17.40
2023-01-17T23:35:33.786Z,17.40
2023-01-17T23:38:21.211Z,17.40
2023-01-17T23:41:08.778Z,17.40
2023-01-17T23:43:39.081Z,17.40
2023-01-17T23:46:13.394Z,17.40
2023-01-17T23:48:41.873Z,17.40
2023-01-17T23:51:10.874Z,17.40
2023-01-17T23:53:41.064Z,17.40
2023-01-17T23:56:19.557Z,17.40
2023-01-17T23:58:48.771Z,17.40
